Terminal Aerodrome Forecast
Issued by NWS

Home | Current Version | Previous Version | Graphics & Text | Print | Product List | Glossary On
Versions: 1 2 3 4 5 6 7 8 9 10 11 12 13 14 15 16 17 18 19 20 21 22 23 24 25 26
216
FTUS43 KLOT 051635 AAA
TAFMDW
TAF AMD
KMDW 051635Z 0517/0612 33009KT P6SM BKN016
      TEMPO 0517/0519 SCT016
     FM051900 30006KT P6SM SCT015 BKN150
     FM060000 24004KT P6SM OVC090
     FM061000 22009KT P6SM OVC060=

USA.gov is the U.S. government's official web portal to all federal, state and local government web resources and services.